Time;durP1;ratioP1;P1;durP2;ratioP2;P2;SDS_P1;SDS_P2;PMS_P1;PMS_P2;Temp;Humidity;BMP_temperature;BMP_pressure;BME280_temperature;BME280_humidity;BME280_pressure;Samples;Min_cycle;Max_cycle;Signal;HPM_P1;HPM_P2
2023/12/11 00:01:20;;;;;;;30.80;6.03;;;11.00;99.90;;;;;;5093040;28;20254;-71
2023/12/11 00:03:45;;;;;;;31.10;6.23;;;11.00;99.90;;;;;;5093335;28;20598;-72
2023/12/11 00:06:11;;;;;;;34.17;6.33;;;11.00;99.90;;;;;;5093248;28;20304;-71
2023/12/11 00:08:36;;;;;;;28.10;6.13;;;10.90;99.90;;;;;;5093155;28;20251;-71
2023/12/11 00:11:02;;;;;;;30.13;6.43;;;11.00;99.90;;;;;;5093341;28;20175;-72
2023/12/11 00:13:28;;;;;;;32.27;6.67;;;11.00;99.90;;;;;;5095055;28;20172;-71
2023/12/11 00:15:54;;;;;;;29.83;6.07;;;11.00;99.90;;;;;;5097195;28;20168;-71
2023/12/11 00:18:19;;;;;;;26.43;6.13;;;11.00;99.90;;;;;;5096048;28;20179;-72
2023/12/11 00:20:45;;;;;;;31.77;5.87;;;10.90;99.90;;;;;;5097322;28;20682;-71
2023/12/11 00:23:11;;;;;;;35.50;5.93;;;10.90;99.90;;;;;;5097219;28;20223;-71
2023/12/11 00:25:37;;;;;;;26.53;6.17;;;10.90;99.90;;;;;;5097305;28;20176;-71
2023/12/11 00:28:03;;;;;;;35.40;6.17;;;10.90;99.90;;;;;;5096618;28;20279;-71
2023/12/11 00:30:29;;;;;;;29.37;5.57;;;10.80;99.90;;;;;;5095933;28;20168;-71
2023/12/11 00:32:54;;;;;;;33.40;5.87;;;10.80;99.90;;;;;;5096980;28;20174;-71
2023/12/11 00:35:20;;;;;;;29.37;5.43;;;10.80;99.90;;;;;;5096945;28;20639;-71
2023/12/11 00:37:45;;;;;;;26.03;6.23;;;10.70;99.90;;;;;;5096907;28;20164;-71
2023/12/11 00:40:11;;;;;;;26.00;5.70;;;10.70;99.90;;;;;;5097358;28;20191;-72
2023/12/11 00:42:37;;;;;;;28.27;5.83;;;10.80;99.90;;;;;;5096660;28;20221;-71
2023/12/11 00:45:03;;;;;;;29.00;4.90;;;10.90;99.90;;;;;;5096801;28;20283;-71
2023/12/11 00:47:28;;;;;;;22.60;5.53;;;10.90;99.90;;;;;;5096624;28;20207;-71
2023/12/11 00:49:54;;;;;;;27.07;5.83;;;10.90;99.90;;;;;;5096705;28;20172;-71
2023/12/11 00:52:20;;;;;;;24.90;5.53;;;11.00;99.90;;;;;;5096749;28;20848;-71
2023/12/11 00:54:45;;;;;;;26.43;5.43;;;11.00;99.90;;;;;;5096629;28;20172;-70
2023/12/11 00:57:11;;;;;;;28.70;5.83;;;11.00;99.90;;;;;;5095160;28;20175;-71
2023/12/11 00:59:38;;;;;;;20.43;5.10;;;11.10;99.90;;;;;;5096615;28;20178;-71
2023/12/11 01:02:04;;;;;;;28.33;5.60;;;11.10;99.90;;;;;;5096655;28;20229;-71
2023/12/11 01:04:30;;;;;;;30.63;6.33;;;11.10;99.90;;;;;;5095226;28;20574;-71
2023/12/11 01:06:55;;;;;;;25.07;5.00;;;11.10;99.90;;;;;;5096366;28;20175;-71
2023/12/11 01:09:21;;;;;;;33.40;6.03;;;11.20;99.90;;;;;;5096297;28;20635;-71
2023/12/11 01:11:46;;;;;;;26.20;5.80;;;11.20;99.90;;;;;;5096156;28;20172;-71
2023/12/11 01:14:12;;;;;;;29.53;6.30;;;11.20;99.90;;;;;;5096191;28;20317;-71
2023/12/11 01:16:38;;;;;;;29.00;5.53;;;11.30;99.90;;;;;;5096149;28;20172;-71
2023/12/11 01:19:04;;;;;;;25.17;5.47;;;11.30;99.90;;;;;;5094772;28;20252;-71
2023/12/11 01:21:29;;;;;;;29.90;5.67;;;11.20;99.90;;;;;;5095931;28;20204;-71
2023/12/11 01:23:55;;;;;;;23.23;5.27;;;11.30;99.90;;;;;;5095832;28;20191;-71
2023/12/11 01:26:20;;;;;;;26.47;5.63;;;11.30;99.90;;;;;;5095729;28;20207;-72
2023/12/11 01:28:46;;;;;;;23.80;5.27;;;11.20;99.90;;;;;;5095652;28;20277;-72
2023/12/11 01:31:12;;;;;;;27.77;5.40;;;11.20;99.90;;;;;;5096022;28;20171;-72
2023/12/11 01:33:37;;;;;;;25.33;5.03;;;11.30;99.90;;;;;;5094643;28;20180;-72
2023/12/11 01:36:03;;;;;;;27.73;5.83;;;11.20;99.90;;;;;;5095805;28;20243;-72
2023/12/11 01:38:29;;;;;;;25.47;5.17;;;11.20;99.90;;;;;;5095812;28;20168;-72
2023/12/11 01:40:55;;;;;;;22.13;4.90;;;11.20;99.90;;;;;;5095495;28;20168;-70
2023/12/11 01:43:20;;;;;;;29.23;5.57;;;11.20;99.90;;;;;;5095649;28;20175;-71
2023/12/11 01:46:07;;;;;;;23.03;5.33;;;11.30;99.90;;;;;;5095672;28;20204;-71
2023/12/11 01:48:35;;;;;;;22.77;4.40;;;11.30;99.90;;;;;;5095623;28;20266;-71
2023/12/11 01:51:02;;;;;;;26.63;5.97;;;11.20;99.90;;;;;;5095669;28;20182;-71
2023/12/11 01:53:28;;;;;;;18.73;5.10;;;11.30;99.90;;;;;;5095536;28;20635;-71
2023/12/11 01:55:54;;;;;;;23.77;5.47;;;11.30;99.90;;;;;;5095102;28;20156;-70
2023/12/11 01:58:20;;;;;;;30.17;5.43;;;11.30;99.90;;;;;;5094165;28;20186;-71
2023/12/11 02:00:47;;;;;;;36.57;6.73;;;11.30;99.90;;;;;;5095481;28;20161;-71
2023/12/11 02:03:12;;;;;;;26.37;5.33;;;11.30;99.90;;;;;;5095342;28;20650;-70
2023/12/11 02:05:40;;;;;;;22.47;5.10;;;11.30;99.90;;;;;;5095272;28;20160;-70
2023/12/11 02:08:06;;;;;;;22.77;4.83;;;11.30;99.90;;;;;;5095010;28;20662;-70
2023/12/11 02:10:32;;;;;;;28.90;5.40;;;11.30;99.90;;;;;;5094723;28;20168;-70
2023/12/11 02:12:57;;;;;;;21.90;5.27;;;11.30;99.90;;;;;;5095314;28;20175;-70
2023/12/11 02:15:44;;;;;;;21.33;5.60;;;11.30;99.90;;;;;;5095053;28;20627;-71
2023/12/11 02:18:12;;;;;;;21.20;4.90;;;11.30;99.90;;;;;;5095033;28;20172;-70
2023/12/11 02:20:39;;;;;;;24.33;4.73;;;11.30;99.90;;;;;;5094920;28;20657;-71
2023/12/11 02:23:10;;;;;;;24.47;5.13;;;11.30;99.90;;;;;;5094749;28;20187;-70
2023/12/11 02:25:37;;;;;;;24.57;5.50;;;11.20;99.90;;;;;;5094622;28;20338;-70
2023/12/11 02:28:04;;;;;;;27.13;4.70;;;11.20;99.90;;;;;;5094366;28;20622;-71
2023/12/11 02:30:32;;;;;;;27.33;5.90;;;11.20;99.90;;;;;;5094963;28;20160;-71
2023/12/11 02:32:58;;;;;;;22.20;4.57;;;11.10;99.90;;;;;;5094810;28;20176;-71
2023/12/11 02:35:24;;;;;;;25.30;5.10;;;11.10;99.90;;;;;;5094027;28;20666;-71
2023/12/11 02:37:49;;;;;;;22.43;4.90;;;11.10;99.90;;;;;;5094759;28;20504;-71
2023/12/11 02:40:15;;;;;;;23.67;4.63;;;11.10;99.90;;;;;;5094397;28;20656;-71
2023/12/11 02:42:47;;;;;;;24.67;4.97;;;11.10;99.90;;;;;;5094686;28;20266;-71
2023/12/11 02:45:14;;;;;;;19.97;5.23;;;11.20;99.90;;;;;;5094618;28;20198;-70
2023/12/11 02:47:40;;;;;;;15.27;4.20;;;11.20;99.90;;;;;;5094233;28;20195;-70
2023/12/11 02:50:06;;;;;;;30.27;5.47;;;11.20;99.90;;;;;;5094484;28;20171;-70
2023/12/11 02:52:31;;;;;;;26.17;5.30;;;11.30;99.90;;;;;;5094610;28;20168;-70
2023/12/11 02:54:57;;;;;;;25.37;5.17;;;11.30;99.90;;;;;;5093979;28;20489;-70
2023/12/11 02:57:23;;;;;;;21.80;4.40;;;11.30;99.90;;;;;;5094176;28;20184;-70
2023/12/11 02:59:48;;;;;;;19.90;4.43;;;11.20;99.90;;;;;;5094272;28;20183;-70
2023/12/11 03:02:14;;;;;;;23.40;4.60;;;11.20;99.90;;;;;;5094100;28;20220;-70
2023/12/11 03:04:40;;;;;;;24.83;4.77;;;11.20;99.90;;;;;;5094183;28;20274;-70
2023/12/11 03:07:05;;;;;;;28.07;5.23;;;11.10;99.90;;;;;;5094145;28;20179;-70
2023/12/11 03:09:31;;;;;;;30.87;5.37;;;11.00;99.90;;;;;;5093798;28;20176;-70
2023/12/11 03:11:56;;;;;;;26.83;4.60;;;11.00;99.90;;;;;;5094082;28;20643;-70
2023/12/11 03:14:22;;;;;;;28.97;5.17;;;11.00;99.90;;;;;;5093909;28;20172;-69
2023/12/11 03:16:48;;;;;;;22.13;4.77;;;11.00;99.90;;;;;;5093966;28;20505;-70
2023/12/11 03:19:15;;;;;;;24.57;5.33;;;10.90;99.90;;;;;;5093651;28;20168;-70
2023/12/11 03:21:41;;;;;;;25.73;5.00;;;10.90;99.90;;;;;;5093734;28;20176;-70
2023/12/11 03:24:07;;;;;;;27.17;5.30;;;10.80;99.90;;;;;;5093360;28;20686;-70
2023/12/11 03:26:32;;;;;;;25.33;4.77;;;10.70;99.90;;;;;;5093830;28;20175;-70
2023/12/11 03:28:58;;;;;;;24.33;4.77;;;10.60;99.90;;;;;;5093511;28;20227;-70
2023/12/11 03:31:23;;;;;;;32.57;5.57;;;10.60;99.90;;;;;;5093690;28;20623;-70
2023/12/11 03:33:49;;;;;;;24.97;4.87;;;10.60;99.90;;;;;;5093501;28;20160;-70
2023/12/11 03:36:14;;;;;;;23.60;5.10;;;10.60;99.90;;;;;;5093643;28;20231;-70
2023/12/11 03:38:40;;;;;;;32.83;5.63;;;10.60;99.90;;;;;;5093330;28;20639;-70
2023/12/11 03:41:06;;;;;;;23.20;5.40;;;10.60;99.90;;;;;;5093504;28;20168;-70
2023/12/11 03:43:31;;;;;;;30.13;5.53;;;10.60;99.90;;;;;;5093593;28;20528;-70
2023/12/11 03:45:57;;;;;;;24.90;5.70;;;10.60;99.90;;;;;;5093060;28;20695;-70
2023/12/11 03:48:22;;;;;;;25.60;5.20;;;10.50;99.90;;;;;;5092823;28;20192;-70
2023/12/11 03:50:48;;;;;;;27.90;5.40;;;10.60;99.90;;;;;;5093365;28;20175;-70
2023/12/11 03:53:14;;;;;;;24.67;4.93;;;10.60;99.90;;;;;;5093269;28;20176;-70
2023/12/11 03:55:39;;;;;;;22.00;5.07;;;10.60;99.90;;;;;;5093421;28;20168;-70
2023/12/11 03:58:05;;;;;;;23.03;4.63;;;10.60;99.90;;;;;;5093199;28;20180;-70
2023/12/11 04:00:31;;;;;;;25.67;5.43;;;10.70;99.90;;;;;;5093421;28;20216;-70
2023/12/11 04:02:56;;;;;;;19.73;4.70;;;10.60;99.90;;;;;;5093379;28;20217;-70
2023/12/11 04:05:22;;;;;;;24.23;4.20;;;10.70;99.90;;;;;;5092821;28;20168;-70
2023/12/11 04:07:48;;;;;;;27.67;5.53;;;10.70;99.90;;;;;;5093023;28;20203;-70
2023/12/11 04:10:13;;;;;;;23.13;5.40;;;10.60;99.90;;;;;;5093255;28;20171;-70
2023/12/11 04:12:42;;;;;;;24.00;5.50;;;10.60;99.90;;;;;;5093331;28;20172;-70
2023/12/11 04:15:07;;;;;;;27.00;5.10;;;10.60;99.90;;;;;;5093032;28;20639;-70
2023/12/11 04:17:33;;;;;;;22.93;4.37;;;10.60;99.90;;;;;;5092374;28;20207;-70
2023/12/11 04:19:59;;;;;;;19.17;4.40;;;10.60;99.90;;;;;;5092626;28;20337;-70
2023/12/11 04:22:24;;;;;;;24.13;4.87;;;10.60;99.90;;;;;;5092710;28;20241;-70
2023/12/11 04:24:50;;;;;;;24.80;4.93;;;10.60;99.90;;;;;;5093051;28;20608;-70
2023/12/11 04:27:16;;;;;;;29.80;5.43;;;10.60;99.90;;;;;;5091323;28;20661;-70
2023/12/11 04:29:41;;;;;;;29.37;5.23;;;10.60;99.90;;;;;;5092898;28;20168;-70
2023/12/11 04:32:07;;;;;;;28.33;5.40;;;10.60;99.90;;;;;;5092859;28;20203;-71
2023/12/11 04:34:32;;;;;;;26.97;4.80;;;10.60;99.90;;;;;;5090675;28;20275;-71
2023/12/11 04:36:58;;;;;;;25.43;5.00;;;10.70;99.90;;;;;;5092789;28;20176;-71
2023/12/11 04:39:23;;;;;;;22.87;5.20;;;10.60;99.90;;;;;;5091050;28;20210;-71
2023/12/11 04:41:49;;;;;;;23.03;4.43;;;10.60;99.90;;;;;;5092855;28;20186;-71
2023/12/11 04:44:15;;;;;;;18.87;4.23;;;10.60;99.90;;;;;;5092851;28;20171;-71
2023/12/11 04:46:40;;;;;;;17.80;4.37;;;10.70;99.90;;;;;;5092558;28;20539;-71
2023/12/11 04:49:06;;;;;;;20.23;4.13;;;10.70;99.90;;;;;;5091984;28;20677;-71
2023/12/11 04:51:32;;;;;;;24.37;4.97;;;10.70;99.90;;;;;;5091951;28;20175;-71
2023/12/11 04:53:58;;;;;;;21.17;4.40;;;10.60;99.90;;;;;;5091902;28;20172;-70
2023/12/11 04:56:24;;;;;;;19.87;4.47;;;10.60;99.90;;;;;;5092497;28;20176;-70
2023/12/11 04:58:50;;;;;;;22.07;4.80;;;10.80;99.90;;;;;;5094477;28;20528;-71
2023/12/11 05:01:15;;;;;;;27.50;4.73;;;10.70;99.90;;;;;;5096484;28;20176;-71
2023/12/11 05:03:41;;;;;;;23.83;5.37;;;10.70;99.90;;;;;;5095602;28;20605;-71
2023/12/11 05:06:07;;;;;;;20.13;4.73;;;10.70;99.90;;;;;;5095726;28;20167;-72
2023/12/11 05:08:33;;;;;;;24.33;4.83;;;10.70;99.90;;;;;;5095729;28;20212;-70
2023/12/11 05:10:58;;;;;;;22.73;4.97;;;10.70;99.90;;;;;;5095907;28;20170;-71
2023/12/11 05:13:24;;;;;;;22.27;4.27;;;10.80;99.90;;;;;;5096111;28;20309;-70
2023/12/11 05:15:50;;;;;;;20.80;4.33;;;10.80;99.90;;;;;;5095370;28;20638;-70
2023/12/11 05:18:15;;;;;;;24.67;4.27;;;10.80;99.90;;;;;;5095236;28;20243;-71
2023/12/11 05:20:41;;;;;;;20.30;4.77;;;10.80;99.90;;;;;;5095535;28;20627;-71
2023/12/11 05:23:06;;;;;;;19.17;4.40;;;10.80;99.90;;;;;;5094166;28;20192;-70
2023/12/11 05:25:32;;;;;;;24.47;5.10;;;10.80;99.90;;;;;;5095461;28;20176;-71
2023/12/11 05:27:58;;;;;;;21.83;4.67;;;10.80;99.90;;;;;;5095121;28;20272;-70
2023/12/11 05:30:24;;;;;;;15.50;4.13;;;10.80;99.90;;;;;;5095148;28;20245;-70
2023/12/11 05:32:50;;;;;;;19.63;4.93;;;10.80;99.90;;;;;;5095111;28;20175;-70
2023/12/11 05:35:16;;;;;;;23.67;4.67;;;10.80;99.90;;;;;;5094849;28;20192;-71
2023/12/11 05:37:41;;;;;;;21.17;4.73;;;10.80;99.90;;;;;;5095445;28;20175;-71
2023/12/11 05:40:08;;;;;;;19.60;4.57;;;10.80;99.90;;;;;;5095046;28;20168;-70
2023/12/11 05:42:33;;;;;;;22.47;4.73;;;10.80;99.90;;;;;;5095327;28;20222;-71
2023/12/11 05:44:59;;;;;;;24.47;4.83;;;10.80;99.90;;;;;;5094995;28;20164;-71
2023/12/11 05:47:25;;;;;;;21.40;5.33;;;10.90;99.90;;;;;;5094798;28;20302;-71
2023/12/11 05:49:51;;;;;;;19.70;4.73;;;10.90;99.90;;;;;;5094742;28;20183;-70
2023/12/11 05:52:16;;;;;;;19.17;4.43;;;10.90;99.90;;;;;;5094789;28;20206;-70
2023/12/11 05:54:42;;;;;;;24.83;4.77;;;11.00;99.90;;;;;;5094085;28;20204;-70
2023/12/11 05:57:08;;;;;;;26.90;5.60;;;11.00;99.90;;;;;;5093289;28;20178;-71
2023/12/11 05:59:33;;;;;;;30.50;5.40;;;10.90;99.90;;;;;;5093099;28;20266;-70
2023/12/11 06:01:59;;;;;;;25.63;5.13;;;10.90;99.90;;;;;;5093895;28;20643;-71
2023/12/11 06:04:24;;;;;;;27.83;5.07;;;11.00;99.90;;;;;;5094600;28;20168;-71
2023/12/11 06:06:50;;;;;;;29.67;5.63;;;11.00;99.90;;;;;;5094384;28;20629;-71
2023/12/11 06:09:16;;;;;;;18.93;4.33;;;11.00;99.90;;;;;;5093832;28;20208;-72
2023/12/11 06:11:42;;;;;;;25.93;5.00;;;11.10;99.90;;;;;;5093102;28;20236;-71
2023/12/11 06:14:07;;;;;;;21.93;4.57;;;11.10;99.90;;;;;;5094088;28;20172;-71
2023/12/11 06:16:33;;;;;;;25.00;4.97;;;11.10;99.90;;;;;;5093695;28;20247;-71
2023/12/11 06:18:59;;;;;;;22.23;4.50;;;11.20;99.90;;;;;;5094298;28;20211;-71
2023/12/11 06:21:25;;;;;;;22.57;5.37;;;11.20;99.90;;;;;;5093991;28;20168;-73
2023/12/11 06:23:51;;;;;;;24.43;4.23;;;11.30;99.90;;;;;;5093847;28;20260;-71
2023/12/11 06:26:34;;;;;;;22.83;5.00;;;11.30;99.90;;;;;;5093896;28;20176;-71
2023/12/11 06:29:00;;;;;;;21.63;4.20;;;11.40;99.90;;;;;;5092927;28;20323;-72
2023/12/11 06:31:27;;;;;;;32.80;5.60;;;11.40;99.90;;;;;;5093307;28;20177;-71
2023/12/11 06:33:53;;;;;;;21.10;4.60;;;11.50;99.90;;;;;;5093705;28;20164;-72
2023/12/11 06:36:19;;;;;;;25.70;4.60;;;11.50;99.90;;;;;;5093218;28;20221;-72
2023/12/11 06:38:44;;;;;;;20.10;4.63;;;11.50;99.90;;;;;;5093456;28;20176;-72
2023/12/11 06:41:10;;;;;;;30.00;4.83;;;11.50;99.90;;;;;;5093226;28;20635;-72
2023/12/11 06:43:36;;;;;;;22.83;4.77;;;11.50;99.90;;;;;;5093070;28;20171;-72
2023/12/11 06:46:02;;;;;;;20.57;4.43;;;11.50;99.90;;;;;;5092942;28;20171;-72
2023/12/11 06:48:29;;;;;;;17.07;3.83;;;11.50;99.90;;;;;;5093012;28;20562;-72
2023/12/11 06:50:55;;;;;;;19.67;4.73;;;11.40;99.90;;;;;;5093249;28;20172;-72
2023/12/11 06:53:20;;;;;;;22.10;4.30;;;11.40;99.90;;;;;;5092849;28;20563;-72
2023/12/11 06:55:46;;;;;;;23.33;4.30;;;11.40;99.90;;;;;;5093048;28;20167;-71
2023/12/11 06:58:11;;;;;;;15.93;4.30;;;11.40;99.90;;;;;;5092216;28;20168;-72
2023/12/11 07:00:38;;;;;;;21.10;4.23;;;11.50;99.90;;;;;;5092390;28;20209;-72
2023/12/11 07:03:03;;;;;;;21.03;4.67;;;11.50;99.90;;;;;;5092592;28;20168;-72
2023/12/11 07:05:29;;;;;;;21.27;3.93;;;11.50;99.90;;;;;;5092034;28;20545;-73
2023/12/11 07:07:55;;;;;;;21.40;4.03;;;11.50;99.90;;;;;;5092321;28;20748;-72
2023/12/11 07:10:20;;;;;;;18.97;4.10;;;11.60;99.90;;;;;;5092750;28;20171;-72
2023/12/11 07:12:47;;;;;;;20.37;4.60;;;11.60;99.90;;;;;;5092305;28;20276;-72
2023/12/11 07:15:13;;;;;;;21.90;3.90;;;11.60;99.90;;;;;;5092864;28;20198;-71
2023/12/11 07:17:38;;;;;;;20.40;4.00;;;11.60;99.90;;;;;;5092993;28;20199;-71
2023/12/11 07:20:05;;;;;;;15.20;3.73;;;11.70;99.90;;;;;;5092525;28;20304;-72
2023/12/11 07:22:33;;;;;;;12.63;3.67;;;11.70;99.90;;;;;;5092284;28;20279;-72
2023/12/11 07:24:59;;;;;;;8.60;2.80;;;11.70;99.90;;;;;;5092099;28;20171;-72
2023/12/11 07:27:24;;;;;;;14.90;3.60;;;11.70;99.90;;;;;;5091778;28;20227;-71
2023/12/11 07:29:50;;;;;;;14.37;3.50;;;11.80;99.90;;;;;;5091738;28;20309;-73
2023/12/11 07:32:15;;;;;;;16.30;3.00;;;11.80;99.90;;;;;;5092753;28;20176;-71
2023/12/11 07:34:42;;;;;;;14.57;3.30;;;11.70;99.90;;;;;;5091104;28;20179;-73
2023/12/11 07:37:09;;;;;;;12.13;3.00;;;11.80;99.90;;;;;;5090229;28;20180;-71
2023/12/11 07:39:34;;;;;;;19.07;3.80;;;11.80;99.90;;;;;;5091210;28;20175;-72
2023/12/11 07:42:00;;;;;;;11.57;3.20;;;11.80;99.90;;;;;;5091362;28;20256;-71
2023/12/11 07:44:26;;;;;;;11.23;3.27;;;11.80;99.90;;;;;;5090863;28;20184;-72
2023/12/11 07:46:52;;;;;;;12.97;3.03;;;11.80;99.90;;;;;;5091141;28;20251;-73
2023/12/11 07:49:18;;;;;;;12.33;2.73;;;11.80;99.90;;;;;;5091697;28;20290;-72
2023/12/11 07:51:43;;;;;;;17.97;3.70;;;11.90;99.90;;;;;;5091383;28;20196;-73
2023/12/11 07:54:10;;;;;;;18.17;3.97;;;11.80;99.90;;;;;;5090783;28;20167;-73
2023/12/11 07:56:37;;;;;;;21.47;3.87;;;11.90;99.90;;;;;;5090120;28;20183;-72
2023/12/11 07:59:03;;;;;;;26.13;4.00;;;11.90;99.90;;;;;;5090241;28;20576;-73
2023/12/11 08:01:32;;;;;;;23.37;4.37;;;11.90;99.90;;;;;;5091721;28;20255;-73
2023/12/11 08:03:58;;;;;;;21.73;3.83;;;11.80;99.90;;;;;;5091981;28;20168;-72
2023/12/11 08:06:24;;;;;;;17.13;4.27;;;11.90;99.90;;;;;;5092156;28;20176;-72
2023/12/11 08:08:49;;;;;;;19.53;4.27;;;11.80;99.90;;;;;;5091520;28;20555;-71
2023/12/11 08:11:21;;;;;;;17.33;3.80;;;11.80;99.90;;;;;;5091794;28;20266;-71
2023/12/11 08:13:48;;;;;;;19.50;3.97;;;11.80;99.90;;;;;;5090954;28;20171;-71
2023/12/11 08:16:14;;;;;;;23.37;4.30;;;11.80;99.90;;;;;;5091970;28;20250;-73
2023/12/11 08:18:44;;;;;;;20.33;4.23;;;11.80;99.90;;;;;;5091969;28;20623;-72
2023/12/11 08:21:10;;;;;;;16.73;3.73;;;11.90;99.90;;;;;;5092026;28;20176;-71
2023/12/11 08:23:43;;;;;;;13.33;3.83;;;11.80;99.90;;;;;;5091879;28;20211;-72
2023/12/11 08:26:09;;;;;;;12.87;3.80;;;11.80;99.90;;;;;;5092260;28;20258;-72
2023/12/11 08:28:35;;;;;;;16.40;3.73;;;11.80;99.90;;;;;;5091109;28;20310;-71
2023/12/11 08:31:00;;;;;;;13.90;3.20;;;11.90;99.90;;;;;;5092644;28;20624;-70
2023/12/11 08:33:26;;;;;;;15.43;3.77;;;11.80;99.90;;;;;;5093905;28;20168;-72
2023/12/11 08:35:52;;;;;;;22.03;3.90;;;11.80;99.90;;;;;;5096172;28;20643;-72
2023/12/11 08:38:17;;;;;;;12.47;3.27;;;11.80;99.90;;;;;;5095935;28;20705;-73
2023/12/11 08:40:43;;;;;;;16.67;3.50;;;11.80;99.90;;;;;;5095795;28;20721;-72
2023/12/11 08:43:11;;;;;;;15.67;3.30;;;11.90;99.90;;;;;;5095754;28;20587;-71
2023/12/11 08:45:37;;;;;;;19.17;3.70;;;11.80;99.90;;;;;;5095894;28;20254;-72
2023/12/11 08:48:03;;;;;;;14.30;3.40;;;11.80;99.90;;;;;;5093428;28;20302;-72
2023/12/11 08:50:28;;;;;;;16.70;3.47;;;11.80;99.90;;;;;;5095080;28;20631;-72
2023/12/11 08:52:54;;;;;;;16.03;3.40;;;11.80;99.90;;;;;;5095631;28;20274;-71
2023/12/11 08:55:20;;;;;;;13.70;3.20;;;11.80;99.90;;;;;;5095642;28;20180;-72
2023/12/11 08:57:45;;;;;;;13.43;3.57;;;11.90;99.90;;;;;;5095992;28;20228;-71
2023/12/11 09:00:12;;;;;;;17.07;3.93;;;11.90;99.90;;;;;;5096313;28;20219;-72
2023/12/11 09:02:38;;;;;;;18.50;3.90;;;11.90;99.90;;;;;;5095377;28;20172;-72
2023/12/11 09:05:04;;;;;;;13.90;3.40;;;11.90;99.90;;;;;;5095106;28;20178;-72
2023/12/11 09:07:29;;;;;;;26.80;4.40;;;11.90;99.90;;;;;;5095552;28;20287;-71
2023/12/11 09:09:55;;;;;;;20.53;4.27;;;11.90;99.90;;;;;;5094735;28;20687;-71
2023/12/11 09:12:21;;;;;;;21.00;3.67;;;12.00;99.90;;;;;;5095480;28;20183;-71
2023/12/11 09:14:47;;;;;;;13.00;3.40;;;11.90;99.90;;;;;;5095472;28;20171;-71
2023/12/11 09:17:13;;;;;;;16.77;3.30;;;12.00;99.90;;;;;;5094972;28;20282;-72
2023/12/11 09:19:38;;;;;;;16.13;3.47;;;12.00;99.90;;;;;;5094818;28;20171;-71
2023/12/11 09:22:04;;;;;;;14.17;3.50;;;12.00;99.90;;;;;;5094623;28;20238;-71
2023/12/11 09:24:30;;;;;;;17.93;3.40;;;11.90;99.90;;;;;;5094682;28;20178;-71
2023/12/11 09:26:55;;;;;;;15.43;3.23;;;12.00;99.90;;;;;;5095249;28;20600;-71
2023/12/11 09:29:21;;;;;;;11.67;3.33;;;12.00;99.90;;;;;;5095222;28;20633;-71
2023/12/11 09:31:46;;;;;;;11.30;3.10;;;11.90;99.90;;;;;;5095020;28;20164;-71
2023/12/11 09:34:12;;;;;;;15.50;3.47;;;12.00;99.90;;;;;;5093037;28;20172;-71
2023/12/11 09:36:38;;;;;;;16.30;3.40;;;12.00;99.90;;;;;;5095380;28;20172;-71
2023/12/11 09:39:04;;;;;;;14.67;3.57;;;11.80;99.90;;;;;;5094737;28;20526;-70
2023/12/11 09:41:33;;;;;;;15.77;3.40;;;11.90;99.90;;;;;;5054188;28;20192;-69
2023/12/11 09:44:00;;;;;;;19.67;3.50;;;11.90;99.90;;;;;;5060957;28;20196;-71
2023/12/11 09:46:29;;;;;;;17.83;3.53;;;12.00;99.90;;;;;;5055793;28;20181;-70
2023/12/11 09:48:55;;;;;;;20.67;3.80;;;12.00;99.90;;;;;;5063959;28;20213;-69
2023/12/11 09:51:21;;;;;;;12.23;3.17;;;12.00;99.90;;;;;;5054374;28;20517;-70
2023/12/11 09:53:48;;;;;;;13.47;3.67;;;12.10;99.90;;;;;;5054008;28;20632;-70
2023/12/11 09:56:15;;;;;;;16.77;3.33;;;12.10;99.90;;;;;;5054198;28;20179;-71
2023/12/11 09:58:43;;;;;;;15.53;3.63;;;12.10;99.90;;;;;;5061832;28;20219;-69
2023/12/11 10:01:12;;;;;;;10.90;3.30;;;12.10;99.90;;;;;;5073541;28;20264;-71
2023/12/11 10:03:38;;;;;;;10.13;3.17;;;12.10;99.90;;;;;;5074495;28;20688;-70
2023/12/11 10:06:04;;;;;;;16.73;3.77;;;12.10;99.90;;;;;;5074397;28;20171;-70
2023/12/11 10:08:32;;;;;;;17.97;3.70;;;12.10;99.90;;;;;;5073662;28;20512;-70
2023/12/11 10:11:09;;;;;;;15.57;3.77;;;12.00;99.90;;;;;;5073492;28;20168;-70
2023/12/11 10:13:34;;;;;;;18.47;3.67;;;12.00;99.90;;;;;;5073612;28;20694;-71
2023/12/11 10:16:00;;;;;;;16.40;3.80;;;12.00;99.90;;;;;;5066836;28;20185;-71
2023/12/11 10:18:26;;;;;;;16.00;4.10;;;12.10;99.90;;;;;;5066841;28;20172;-71
2023/12/11 10:20:57;;;;;;;16.60;3.83;;;12.10;99.90;;;;;;5072719;28;20259;-71
2023/12/11 10:23:23;;;;;;;21.20;4.27;;;12.00;99.90;;;;;;5067018;28;20201;-70
2023/12/11 10:25:52;;;;;;;19.10;3.90;;;12.00;99.90;;;;;;5053092;28;20173;-70
2023/12/11 10:28:19;;;;;;;16.60;4.07;;;12.00;99.90;;;;;;5060303;28;20229;-70
2023/12/11 10:31:02;;;;;;;16.77;4.10;;;12.00;99.90;;;;;;5056011;28;20229;-70
2023/12/11 10:33:32;;;;;;;18.60;4.20;;;12.10;99.90;;;;;;5071007;28;20204;-72
2023/12/11 10:36:12;;;;;;;17.17;4.00;;;12.20;99.90;;;;;;5071703;28;20325;-71
2023/12/11 10:38:38;;;;;;;17.30;4.67;;;12.20;99.90;;;;;;5073663;28;20169;-71
2023/12/11 10:41:05;;;;;;;13.73;3.20;;;12.10;99.90;;;;;;5072598;28;20180;-70
2023/12/11 10:43:43;;;;;;;21.10;3.80;;;12.10;99.90;;;;;;5073206;28;20168;-71
2023/12/11 10:46:09;;;;;;;13.23;3.70;;;12.10;99.90;;;;;;5072038;28;20239;-71
2023/12/11 10:48:36;;;;;;;14.17;3.63;;;12.20;99.90;;;;;;5073219;28;20562;-71
2023/12/11 10:51:05;;;;;;;12.57;4.10;;;12.20;99.90;;;;;;5071421;28;20169;-71
2023/12/11 10:53:33;;;;;;;14.13;3.10;;;12.30;99.90;;;;;;5071039;28;20230;-71
2023/12/11 10:56:00;;;;;;;14.37;3.97;;;12.20;99.90;;;;;;5069767;28;20173;-71
2023/12/11 10:58:27;;;;;;;15.93;3.60;;;12.30;99.90;;;;;;5072081;28;20681;-71
2023/12/11 11:00:59;;;;;;;15.80;3.93;;;12.30;99.90;;;;;;5057591;28;20647;-70
2023/12/11 11:03:26;;;;;;;15.50;3.80;;;12.30;99.90;;;;;;5059532;28;20176;-70
2023/12/11 11:05:52;;;;;;;22.23;3.77;;;12.40;99.90;;;;;;5056135;28;20174;-69
2023/12/11 11:08:34;;;;;;;12.20;2.77;;;12.30;99.90;;;;;;5062971;28;20256;-70
2023/12/11 11:11:23;;;;;;;11.83;3.17;;;12.30;99.90;;;;;;5064034;28;20196;-72
2023/12/11 11:14:26;;;;;;;8.60;2.70;;;12.20;99.90;;;;;;5055099;28;20177;-70
2023/12/11 11:16:57;;;;;;;12.73;3.27;;;12.20;99.90;;;;;;5053645;28;20227;-69
2023/12/11 11:19:24;;;;;;;10.20;2.80;;;12.30;99.90;;;;;;5058073;28;20180;-70
2023/12/11 11:22:06;;;;;;;11.13;3.37;;;12.30;99.90;;;;;;5051627;28;20205;-72
2023/12/11 11:24:35;;;;;;;11.17;3.10;;;12.30;99.90;;;;;;5058971;28;20169;-71
2023/12/11 11:27:02;;;;;;;9.93;2.93;;;12.30;99.90;;;;;;5058619;28;20173;-71
2023/12/11 11:29:39;;;;;;;12.90;3.33;;;12.40;99.90;;;;;;5059417;28;20247;-71
2023/12/11 11:32:05;;;;;;;14.27;3.37;;;12.30;99.90;;;;;;5051432;28;20208;-70
2023/12/11 11:34:40;;;;;;;11.37;3.00;;;12.30;99.90;;;;;;5060015;28;20536;-70
2023/12/11 11:37:17;;;;;;;12.47;3.03;;;12.20;99.90;;;;;;5056156;28;20203;-71
2023/12/11 11:39:58;;;;;;;10.43;3.30;;;12.20;99.90;;;;;;5051084;28;20216;-74
2023/12/11 11:42:24;;;;;;;13.73;3.00;;;12.30;99.90;;;;;;5052336;28;20181;-72
2023/12/11 11:44:58;;;;;;;13.13;3.47;;;12.40;99.90;;;;;;5051118;28;20185;-71
2023/12/11 11:47:27;;;;;;;16.67;3.70;;;12.40;99.90;;;;;;5057024;28;20204;-70
2023/12/11 11:49:53;;;;;;;14.50;3.00;;;12.30;99.90;;;;;;5050786;28;20197;-71
2023/12/11 11:52:38;;;;;;;15.13;3.37;;;12.40;99.90;;;;;;5052750;28;20248;-71
2023/12/11 11:55:25;;;;;;;11.77;2.57;;;12.40;99.90;;;;;;5050805;28;20185;-71
2023/12/11 11:57:51;;;;;;;13.07;3.27;;;12.60;99.90;;;;;;5052272;28;20189;-71
2023/12/11 12:00:33;;;;;;;16.33;3.13;;;12.60;99.90;;;;;;5063090;28;20556;-71
2023/12/11 12:03:03;;;;;;;13.30;3.53;;;12.60;99.90;;;;;;5068233;28;20600;-71
2023/12/11 12:05:29;;;;;;;11.80;3.20;;;12.70;99.90;;;;;;5069245;28;20251;-72
2023/12/11 12:07:55;;;;;;;14.13;3.17;;;12.80;99.90;;;;;;5053446;28;20205;-72
2023/12/11 12:10:20;;;;;;;19.73;3.80;;;12.80;99.90;;;;;;5049356;28;20184;-73
2023/12/11 12:12:52;;;;;;;15.00;3.47;;;12.80;99.90;;;;;;5058145;28;20601;-71
2023/12/11 12:15:17;;;;;;;12.93;3.03;;;12.90;99.90;;;;;;5064979;28;20601;-71
2023/12/11 12:17:45;;;;;;;15.73;3.47;;;12.80;99.90;;;;;;5051211;28;20181;-73
2023/12/11 12:20:12;;;;;;;11.87;3.03;;;12.80;99.90;;;;;;5057155;28;20187;-72
2023/12/11 12:22:38;;;;;;;14.30;3.70;;;12.70;99.90;;;;;;5062066;28;20196;-73
2023/12/11 12:25:13;;;;;;;8.43;2.57;;;12.70;99.90;;;;;;5066816;28;20510;-71
2023/12/11 12:27:39;;;;;;;12.97;3.23;;;12.70;99.90;;;;;;5057866;28;20358;-72
2023/12/11 12:30:05;;;;;;;12.20;3.20;;;12.70;99.90;;;;;;5056709;28;20185;-72
2023/12/11 12:32:31;;;;;;;15.80;3.03;;;12.70;99.90;;;;;;5050532;28;20188;-71
2023/12/11 12:34:57;;;;;;;14.27;3.37;;;12.80;99.90;;;;;;5056080;28;20684;-73
2023/12/11 12:37:24;;;;;;;10.80;3.37;;;12.70;99.90;;;;;;5050246;28;20197;-72